Time;durP1;ratioP1;P1;durP2;ratioP2;P2;SDS_P1;SDS_P2;PMS_P1;PMS_P2;Temp;Humidity;BMP_temperature;BMP_pressure;BME280_temperature;BME280_humidity;BME280_pressure;Samples;Min_cycle;Max_cycle;Signal;HPM_P1;HPM_P2
2023/01/19 00:00:39;;;;;;;7.70;7.00;;;0.10;99.90;;;;;;5036948;28;20430;-78
2023/01/19 00:03:09;;;;;;;8.32;7.60;;;0.00;99.90;;;;;;5038288;28;20440;-77
2023/01/19 00:05:36;;;;;;;8.32;7.53;;;0.10;99.90;;;;;;5038257;28;20501;-77
2023/01/19 00:08:13;;;;;;;9.25;8.00;;;0.10;99.90;;;;;;5028870;28;20637;-76
2023/01/19 00:10:40;;;;;;;8.52;7.63;;;0.10;99.90;;;;;;5018601;28;20433;-77
2023/01/19 00:13:08;;;;;;;8.32;7.53;;;0.00;99.90;;;;;;5025525;28;20893;-76
2023/01/19 00:15:35;;;;;;;8.10;7.40;;;0.00;99.90;;;;;;5032147;28;20430;-75
2023/01/19 00:18:02;;;;;;;8.35;7.55;;;-0.10;99.90;;;;;;5044624;28;20438;-76
2023/01/19 00:20:30;;;;;;;8.97;8.17;;;-0.10;99.90;;;;;;5027114;28;20515;-77
2023/01/19 00:22:57;;;;;;;8.73;7.93;;;-0.20;99.90;;;;;;5011851;28;20425;-77
2023/01/19 00:25:24;;;;;;;8.68;7.88;;;-0.20;99.90;;;;;;5032481;28;20444;-77
2023/01/19 00:27:51;;;;;;;9.13;8.32;;;-0.20;99.90;;;;;;5032147;28;20753;-78
2023/01/19 00:30:19;;;;;;;8.70;7.90;;;0.00;99.90;;;;;;5030973;28;20439;-77
2023/01/19 00:32:46;;;;;;;9.50;8.60;;;0.10;99.90;;;;;;5032239;28;20421;-77
2023/01/19 00:35:12;;;;;;;8.53;7.63;;;0.30;99.90;;;;;;5033968;28;20872;-76
2023/01/19 00:37:39;;;;;;;8.82;8.02;;;0.30;99.90;;;;;;5033189;28;20438;-77
2023/01/19 00:40:07;;;;;;;8.30;7.50;;;0.40;99.90;;;;;;5028358;28;20441;-77
2023/01/19 00:42:40;;;;;;;8.60;7.07;;;0.50;99.90;;;;;;5026548;28;20442;-77
2023/01/19 00:45:08;;;;;;;8.40;7.65;;;0.60;99.90;;;;;;5031227;28;20442;-76
2023/01/19 00:47:38;;;;;;;7.53;6.82;;;0.70;99.90;;;;;;5028173;28;20787;-77
2023/01/19 00:50:05;;;;;;;7.60;6.90;;;0.70;99.90;;;;;;5046486;28;20545;-78
2023/01/19 00:52:32;;;;;;;7.82;7.03;;;0.80;99.90;;;;;;5041925;28;21217;-77
2023/01/19 00:54:59;;;;;;;7.53;6.90;;;0.80;99.90;;;;;;5050306;28;20468;-77
2023/01/19 00:57:26;;;;;;;7.70;6.95;;;0.90;99.90;;;;;;5040846;28;20433;-75
2023/01/19 00:59:53;;;;;;;8.15;7.35;;;0.80;99.90;;;;;;5044224;28;20466;-75
2023/01/19 01:02:19;;;;;;;7.00;6.30;;;0.80;99.90;;;;;;5044782;28;20441;-76
2023/01/19 01:04:53;;;;;;;8.30;7.50;;;0.70;99.90;;;;;;5044382;28;20440;-76
2023/01/19 01:07:20;;;;;;;7.63;6.95;;;0.70;99.90;;;;;;5049050;28;20473;-75
2023/01/19 01:09:47;;;;;;;8.00;7.20;;;0.70;99.90;;;;;;5047811;28;21247;-76
2023/01/19 01:12:13;;;;;;;7.72;7.03;;;0.70;99.90;;;;;;5024021;28;20430;-76
2023/01/19 01:14:40;;;;;;;7.05;6.40;;;0.70;99.90;;;;;;5033811;28;20430;-76
2023/01/19 01:17:10;;;;;;;6.90;6.30;;;0.70;99.90;;;;;;5033945;28;20439;-76
2023/01/19 01:19:37;;;;;;;7.20;6.50;;;0.70;99.90;;;;;;5032748;28;20878;-76
2023/01/19 01:22:05;;;;;;;7.20;6.50;;;0.60;99.90;;;;;;5032321;28;20434;-76
2023/01/19 01:24:32;;;;;;;7.40;6.70;;;0.60;99.90;;;;;;5032647;28;20465;-76
2023/01/19 01:26:59;;;;;;;6.78;6.18;;;0.60;99.90;;;;;;5031389;28;20897;-76
2023/01/19 01:29:26;;;;;;;7.07;6.47;;;0.60;99.90;;;;;;5033743;28;20495;-76
2023/01/19 01:31:52;;;;;;;7.13;6.43;;;0.50;99.90;;;;;;5036146;28;20433;-77
2023/01/19 01:34:19;;;;;;;7.00;6.40;;;0.50;99.90;;;;;;5031897;28;20419;-75
2023/01/19 01:36:46;;;;;;;6.60;5.90;;;0.50;99.90;;;;;;5043699;28;20435;-75
2023/01/19 01:39:14;;;;;;;6.68;6.00;;;0.40;99.90;;;;;;5042976;28;20473;-75
2023/01/19 01:41:41;;;;;;;6.40;5.80;;;0.40;99.90;;;;;;5029845;28;20555;-75
2023/01/19 01:44:48;;;;;;;6.68;6.07;;;0.40;99.90;;;;;;5022339;28;20427;-75
2023/01/19 01:47:16;;;;;;;6.30;5.70;;;0.40;99.90;;;;;;5030445;28;20801;-75
2023/01/19 01:49:43;;;;;;;6.03;5.53;;;0.50;99.90;;;;;;5031940;28;20502;-75
2023/01/19 01:52:11;;;;;;;6.00;5.50;;;0.60;99.90;;;;;;5031046;28;20446;-76
2023/01/19 01:54:39;;;;;;;6.70;5.60;;;0.70;99.90;;;;;;5032335;28;20453;-76
2023/01/19 01:57:11;;;;;;;5.80;5.30;;;0.80;99.90;;;;;;5035730;28;20440;-76
2023/01/19 01:59:42;;;;;;;5.70;5.30;;;0.90;99.90;;;;;;5051871;28;20427;-76
2023/01/19 02:05:02;;;;;;;5.63;5.15;;;1.10;99.90;;;;;;5034805;28;20465;-76
2023/01/19 02:13:20;;;;;;;5.40;4.90;;;1.00;99.90;;;;;;5028387;28;20426;-76
2023/01/19 02:15:51;;;;;;;6.18;5.22;;;1.00;99.90;;;;;;5028266;28;20434;-76
2023/01/19 02:18:19;;;;;;;5.18;4.68;;;0.90;99.90;;;;;;5029598;28;20458;-76
2023/01/19 02:20:53;;;;;;;5.40;4.90;;;0.90;99.90;;;;;;5030690;28;20458;-76
2023/01/19 02:23:37;;;;;;;5.10;4.70;;;0.90;99.90;;;;;;5024652;28;20514;-76
2023/01/19 02:26:08;;;;;;;4.87;4.47;;;0.90;99.90;;;;;;5027559;28;21127;-77
2023/01/19 02:28:37;;;;;;;5.00;4.60;;;0.90;99.90;;;;;;5029834;28;20437;-76
2023/01/19 02:31:05;;;;;;;4.50;4.10;;;0.80;99.90;;;;;;5026309;28;20498;-76
2023/01/19 02:33:31;;;;;;;4.95;4.45;;;0.80;99.90;;;;;;5029074;28;20426;-76
2023/01/19 02:35:59;;;;;;;4.65;4.32;;;0.80;99.90;;;;;;5028084;28;20817;-75
2023/01/19 02:38:28;;;;;;;4.50;4.20;;;0.90;99.90;;;;;;5030325;28;20434;-76
2023/01/19 02:40:57;;;;;;;4.32;3.92;;;0.80;99.90;;;;;;5027637;28;20451;-77
2023/01/19 02:43:27;;;;;;;4.85;4.45;;;0.80;99.90;;;;;;5039972;28;20414;-77
2023/01/19 02:45:54;;;;;;;5.22;4.55;;;0.90;99.90;;;;;;5044039;28;20435;-76
2023/01/19 02:48:21;;;;;;;5.22;4.82;;;0.90;99.90;;;;;;5044201;28;20427;-75
2023/01/19 02:50:51;;;;;;;4.93;4.43;;;0.90;99.90;;;;;;5036650;28;20457;-76
2023/01/19 02:53:58;;;;;;;4.70;4.30;;;0.90;99.90;;;;;;5032385;28;20437;-77
2023/01/19 02:56:38;;;;;;;4.22;3.92;;;0.90;99.90;;;;;;5019078;28;20461;-75
2023/01/19 02:59:13;;;;;;;4.40;4.00;;;0.90;99.90;;;;;;5029427;28;20449;-77
2023/01/19 03:01:53;;;;;;;4.57;4.18;;;0.90;99.90;;;;;;5028618;28;20438;-75
2023/01/19 03:04:28;;;;;;;4.90;4.50;;;0.80;99.90;;;;;;5022698;28;20747;-75
2023/01/19 03:07:05;;;;;;;4.57;4.18;;;0.90;99.90;;;;;;5028348;28;20791;-76
2023/01/19 03:09:40;;;;;;;5.47;4.30;;;1.00;99.90;;;;;;5031225;28;20430;-76
2023/01/19 03:12:14;;;;;;;5.00;4.00;;;0.90;99.90;;;;;;5045651;28;20510;-77
2023/01/19 03:14:45;;;;;;;4.75;4.25;;;0.90;99.90;;;;;;5044185;28;20421;-77
2023/01/19 03:17:14;;;;;;;4.50;4.10;;;0.90;99.90;;;;;;5037392;28;20509;-75
2023/01/19 03:19:43;;;;;;;4.78;4.38;;;0.80;99.90;;;;;;5045507;28;20494;-75
2023/01/19 03:22:14;;;;;;;5.40;4.60;;;0.80;99.90;;;;;;5044277;28;20413;-74
2023/01/19 03:24:43;;;;;;;4.90;4.50;;;0.70;99.90;;;;;;5042669;28;20457;-75
2023/01/19 03:27:14;;;;;;;4.77;4.37;;;0.70;99.90;;;;;;5032331;28;20419;-75
2023/01/19 03:29:48;;;;;;;4.53;4.10;;;0.70;99.90;;;;;;5030549;28;20793;-76
2023/01/19 03:32:17;;;;;;;5.22;4.72;;;0.70;99.90;;;;;;5030783;28;20434;-76
2023/01/19 03:34:46;;;;;;;5.00;4.60;;;0.70;99.90;;;;;;5037147;28;20537;-77
2023/01/19 03:37:16;;;;;;;4.70;4.30;;;0.70;99.90;;;;;;5047343;28;20411;-76
2023/01/19 03:39:43;;;;;;;4.22;3.83;;;0.60;99.90;;;;;;5047879;28;20422;-75
2023/01/19 03:42:13;;;;;;;4.40;4.00;;;0.60;99.90;;;;;;5047831;28;20441;-76
2023/01/19 03:44:43;;;;;;;4.82;4.43;;;0.70;99.90;;;;;;5042015;28;20415;-76
2023/01/19 03:47:12;;;;;;;4.75;4.35;;;0.70;99.90;;;;;;5031384;28;20925;-75
2023/01/19 03:49:41;;;;;;;4.45;3.80;;;0.80;99.90;;;;;;5040236;28;20546;-75
2023/01/19 03:52:08;;;;;;;5.70;4.30;;;0.80;99.90;;;;;;5028914;28;20423;-74
2023/01/19 03:54:35;;;;;;;4.00;3.60;;;1.00;99.90;;;;;;5028218;28;20453;-76
2023/01/19 03:57:02;;;;;;;4.50;4.10;;;1.10;99.90;;;;;;5033112;28;20426;-75
2023/01/19 03:59:29;;;;;;;5.10;4.10;;;1.20;99.90;;;;;;5033131;28;20510;-75
2023/01/19 04:01:57;;;;;;;4.20;3.70;;;1.20;99.90;;;;;;5033991;28;20442;-75
2023/01/19 04:04:24;;;;;;;4.53;4.10;;;1.30;99.90;;;;;;5032625;28;20450;-75
2023/01/19 04:06:51;;;;;;;4.60;4.20;;;1.30;99.90;;;;;;5032435;28;20546;-75
2023/01/19 04:09:17;;;;;;;4.40;4.00;;;1.40;99.90;;;;;;5032425;28;20435;-76
2023/01/19 04:11:44;;;;;;;4.57;4.18;;;1.40;99.70;;;;;;5033034;28;20431;-75
2023/01/19 04:14:11;;;;;;;5.43;4.30;;;1.40;99.40;;;;;;5036814;28;20423;-75
2023/01/19 04:16:37;;;;;;;4.53;4.20;;;1.50;99.30;;;;;;5054280;28;20418;-75
2023/01/19 04:19:05;;;;;;;4.95;4.45;;;1.50;99.10;;;;;;5054062;28;20449;-76
2023/01/19 04:21:32;;;;;;;4.07;3.77;;;1.50;98.80;;;;;;5044567;28;20434;-75
2023/01/19 04:23:59;;;;;;;4.35;3.95;;;1.60;98.70;;;;;;5032396;28;20442;-76
2023/01/19 04:26:27;;;;;;;4.68;4.20;;;1.60;98.60;;;;;;5031332;28;20564;-74
2023/01/19 04:28:53;;;;;;;4.30;3.97;;;1.60;98.50;;;;;;5032809;28;20947;-74
2023/01/19 04:31:22;;;;;;;4.25;3.85;;;1.60;98.50;;;;;;5032717;28;20434;-77
2023/01/19 04:33:48;;;;;;;4.57;4.18;;;1.60;98.30;;;;;;5031330;28;20419;-77
2023/01/19 04:36:17;;;;;;;4.60;4.20;;;1.60;98.20;;;;;;5031948;28;20435;-77
2023/01/19 04:38:45;;;;;;;4.10;3.70;;;1.70;98.30;;;;;;5033130;28;20488;-77
2023/01/19 04:41:12;;;;;;;6.40;3.80;;;1.70;97.70;;;;;;5030092;28;20438;-77
2023/01/19 04:43:39;;;;;;;4.40;4.00;;;1.80;97.70;;;;;;5032652;28;20418;-76
2023/01/19 04:46:06;;;;;;;4.25;3.95;;;1.90;97.20;;;;;;5031159;28;20439;-75
2023/01/19 04:48:33;;;;;;;4.43;4.03;;;2.00;96.90;;;;;;5033700;28;20418;-75
2023/01/19 04:51:00;;;;;;;4.20;3.80;;;2.00;96.50;;;;;;5031707;28;20993;-75
2023/01/19 04:53:28;;;;;;;4.00;3.70;;;2.10;96.20;;;;;;5031568;28;20886;-76
2023/01/19 04:55:54;;;;;;;4.43;3.90;;;2.10;96.30;;;;;;5030669;28;20442;-75
2023/01/19 04:58:21;;;;;;;4.88;3.90;;;2.20;96.30;;;;;;5031862;28;20438;-76
2023/01/19 05:00:49;;;;;;;4.95;4.45;;;2.20;96.10;;;;;;5028383;28;20790;-75
2023/01/19 05:03:18;;;;;;;4.85;4.22;;;2.20;96.00;;;;;;5023582;28;20544;-77
2023/01/19 05:05:44;;;;;;;4.25;3.85;;;2.20;96.50;;;;;;5030151;28;20450;-77
2023/01/19 05:08:11;;;;;;;4.63;4.22;;;2.20;96.60;;;;;;5031736;28;20430;-77
2023/01/19 05:10:39;;;;;;;5.90;4.57;;;2.20;96.90;;;;;;5036212;28;20466;-76
2023/01/19 05:13:06;;;;;;;4.10;3.65;;;2.20;96.90;;;;;;5034067;28;20489;-78
2023/01/19 05:15:33;;;;;;;6.13;4.90;;;2.20;97.30;;;;;;5030126;28;20939;-78
2023/01/19 05:17:59;;;;;;;4.97;4.20;;;2.20;97.20;;;;;;5037309;28;20427;-78
2023/01/19 05:20:26;;;;;;;5.70;4.73;;;2.20;97.40;;;;;;5031072;28;20485;-78
2023/01/19 05:22:53;;;;;;;4.60;4.20;;;2.20;97.40;;;;;;5030986;28;20912;-76
2023/01/19 05:25:20;;;;;;;5.38;4.70;;;2.20;97.70;;;;;;5030570;28;20434;-77
2023/01/19 05:27:48;;;;;;;5.43;4.93;;;2.20;97.60;;;;;;5036002;28;20526;-77
2023/01/19 05:30:15;;;;;;;5.28;4.72;;;2.20;97.80;;;;;;5042549;28;20431;-77
2023/01/19 05:32:42;;;;;;;6.03;4.90;;;2.20;98.20;;;;;;5037585;28;20426;-76
2023/01/19 05:35:12;;;;;;;6.00;5.40;;;2.20;99.00;;;;;;5027772;28;20434;-77
2023/01/19 05:37:39;;;;;;;5.35;4.85;;;2.20;99.60;;;;;;5027745;28;20427;-76
2023/01/19 05:40:08;;;;;;;6.47;5.77;;;2.10;99.90;;;;;;5031727;28;20431;-76
2023/01/19 05:42:35;;;;;;;6.10;5.50;;;2.00;99.90;;;;;;5038249;28;20423;-77
2023/01/19 05:45:04;;;;;;;6.88;5.18;;;2.00;99.90;;;;;;5034983;28;20439;-77
2023/01/19 05:47:31;;;;;;;7.47;6.18;;;1.90;99.90;;;;;;5032866;28;20443;-75
2023/01/19 05:49:58;;;;;;;6.82;5.63;;;1.80;99.90;;;;;;5033267;28;20817;-78
2023/01/19 05:52:25;;;;;;;9.77;6.57;;;1.70;99.90;;;;;;5026928;28;20554;-77
2023/01/19 05:54:53;;;;;;;8.63;6.90;;;1.60;99.90;;;;;;5029443;28;20438;-76
2023/01/19 05:57:21;;;;;;;10.10;7.70;;;1.50;99.90;;;;;;5030102;28;20435;-79
2023/01/19 05:59:48;;;;;;;9.77;7.68;;;1.40;99.90;;;;;;5030744;28;20445;-77
2023/01/19 06:02:16;;;;;;;11.00;8.50;;;1.30;99.90;;;;;;5026470;28;20465;-79
2023/01/19 06:04:43;;;;;;;11.13;8.45;;;1.20;99.90;;;;;;5029265;28;20453;-77
2023/01/19 06:07:10;;;;;;;16.65;9.57;;;1.10;99.90;;;;;;5025302;28;20422;-76
2023/01/19 06:09:36;;;;;;;12.52;9.10;;;1.00;99.90;;;;;;5046544;28;20434;-78
2023/01/19 06:12:04;;;;;;;12.65;10.20;;;1.00;99.90;;;;;;5047858;28;20436;-78
2023/01/19 06:14:31;;;;;;;14.55;10.52;;;0.90;99.90;;;;;;5045804;28;20449;-78
2023/01/19 06:16:58;;;;;;;17.42;12.25;;;0.80;99.90;;;;;;5047729;28;20569;-78
2023/01/19 06:19:26;;;;;;;16.65;11.93;;;0.80;99.90;;;;;;5035199;28;20427;-79
2023/01/19 06:21:53;;;;;;;17.60;13.00;;;0.80;99.90;;;;;;5028742;28;20491;-78
2023/01/19 06:24:21;;;;;;;20.85;14.38;;;0.80;99.90;;;;;;5029974;28;20533;-78
2023/01/19 06:26:48;;;;;;;16.33;12.50;;;0.80;99.90;;;;;;5028023;28;20502;-79
2023/01/19 06:29:15;;;;;;;18.85;14.50;;;0.80;99.90;;;;;;5030543;28;20426;-76
2023/01/19 06:31:42;;;;;;;19.60;14.10;;;0.80;99.90;;;;;;5025612;28;20442;-77
2023/01/19 06:34:09;;;;;;;17.63;14.05;;;0.70;99.90;;;;;;5027184;28;20975;-77
2023/01/19 06:36:37;;;;;;;17.67;13.97;;;0.80;99.90;;;;;;5026175;28;20519;-76
2023/01/19 06:39:05;;;;;;;19.50;14.70;;;0.80;99.90;;;;;;5025944;28;20960;-77
2023/01/19 06:41:33;;;;;;;17.92;14.80;;;0.80;99.90;;;;;;5029877;28;20442;-77
2023/01/19 06:43:59;;;;;;;19.25;15.00;;;0.70;99.90;;;;;;5033219;28;20434;-80
2023/01/19 06:46:27;;;;;;;17.42;13.77;;;0.70;99.90;;;;;;5038612;28;20470;-79
2023/01/19 06:48:54;;;;;;;18.65;14.30;;;0.70;99.90;;;;;;5044227;28;20620;-78
2023/01/19 06:51:21;;;;;;;19.15;15.07;;;0.70;99.90;;;;;;5046645;28;20441;-77
2023/01/19 06:53:50;;;;;;;19.63;14.82;;;0.70;99.90;;;;;;5043221;28;20444;-77
2023/01/19 06:56:16;;;;;;;18.15;14.40;;;0.60;99.90;;;;;;5045544;28;20435;-78
2023/01/19 06:58:43;;;;;;;17.83;14.73;;;0.70;99.90;;;;;;5041126;28;20446;-79
2023/01/19 07:01:10;;;;;;;19.03;13.90;;;0.70;99.90;;;;;;5036253;28;20431;-80
2023/01/19 07:03:37;;;;;;;18.98;14.18;;;0.70;99.90;;;;;;5035442;28;20431;-79
2023/01/19 07:06:06;;;;;;;19.45;15.00;;;0.70;99.90;;;;;;5033042;28;20422;-76
2023/01/19 07:08:33;;;;;;;18.03;15.50;;;0.80;99.90;;;;;;5029688;28;20438;-80
2023/01/19 07:11:03;;;;;;;19.23;14.75;;;0.70;99.90;;;;;;5029368;28;20430;-78
2023/01/19 07:13:36;;;;;;;20.27;14.70;;;0.70;99.90;;;;;;5027030;28;20450;-80
2023/01/19 07:16:09;;;;;;;20.27;15.68;;;0.70;99.90;;;;;;5024598;28;20435;-77
2023/01/19 07:18:37;;;;;;;19.80;16.75;;;0.80;99.90;;;;;;5026836;28;20442;-77
2023/01/19 07:21:04;;;;;;;22.50;16.50;;;0.80;99.90;;;;;;5028224;28;20821;-77
2023/01/19 07:23:31;;;;;;;22.00;17.40;;;0.80;99.90;;;;;;5027457;28;20439;-78
2023/01/19 07:26:03;;;;;;;21.15;16.65;;;0.80;99.90;;;;;;5027198;28;20433;-76
2023/01/19 07:28:31;;;;;;;23.10;17.08;;;0.80;99.90;;;;;;5027919;28;20442;-76
2023/01/19 07:30:58;;;;;;;21.43;17.43;;;0.80;99.90;;;;;;5025648;28;20922;-78
2023/01/19 07:33:25;;;;;;;22.17;16.77;;;0.80;99.90;;;;;;5027120;28;20510;-77
2023/01/19 07:35:53;;;;;;;22.23;16.67;;;0.80;99.90;;;;;;5026844;28;20520;-76
2023/01/19 07:38:20;;;;;;;21.88;17.75;;;0.80;99.90;;;;;;5026883;28;20442;-77
2023/01/19 07:40:47;;;;;;;23.38;17.85;;;0.80;99.90;;;;;;5027118;28;20542;-76
2023/01/19 07:43:20;;;;;;;22.58;17.80;;;0.80;99.90;;;;;;5025684;28;20419;-76
2023/01/19 07:45:47;;;;;;;22.73;17.77;;;0.80;99.90;;;;;;5027356;28;20435;-74
2023/01/19 07:48:15;;;;;;;23.58;17.80;;;0.80;99.90;;;;;;5027511;28;20419;-75
2023/01/19 07:50:42;;;;;;;23.10;17.25;;;0.90;99.90;;;;;;5023812;28;20425;-75
2023/01/19 07:53:10;;;;;;;21.80;18.02;;;0.90;99.90;;;;;;5026056;28;20434;-75
2023/01/19 07:55:37;;;;;;;21.25;17.10;;;0.90;99.90;;;;;;5028821;28;20415;-76
2023/01/19 07:58:06;;;;;;;23.05;17.85;;;1.00;99.90;;;;;;5036516;28;20943;-77
2023/01/19 08:00:34;;;;;;;23.63;17.52;;;1.00;99.90;;;;;;5027577;28;20492;-76
2023/01/19 08:03:02;;;;;;;22.55;17.58;;;1.00;99.90;;;;;;5029767;28;20462;-76
2023/01/19 08:05:29;;;;;;;21.98;17.73;;;1.10;99.90;;;;;;5027322;28;20423;-75
2023/01/19 08:07:57;;;;;;;20.70;17.80;;;1.10;99.90;;;;;;5026516;28;20431;-76
2023/01/19 08:10:25;;;;;;;21.40;16.85;;;1.10;99.90;;;;;;5023582;28;20458;-77
2023/01/19 08:12:52;;;;;;;20.92;18.27;;;1.20;99.90;;;;;;5032647;28;20423;-77
2023/01/19 08:15:21;;;;;;;21.45;18.15;;;1.20;99.90;;;;;;5025368;28;20431;-76
2023/01/19 08:17:56;;;;;;;21.75;16.92;;;1.20;99.90;;;;;;5027821;28;20442;-76
2023/01/19 08:20:23;;;;;;;19.92;17.35;;;1.20;99.90;;;;;;5027123;28;20968;-75
2023/01/19 08:22:50;;;;;;;20.02;16.85;;;1.20;99.90;;;;;;5026044;28;20442;-76
2023/01/19 08:25:17;;;;;;;19.35;17.25;;;1.20;99.90;;;;;;5037572;28;21083;-76
2023/01/19 08:27:44;;;;;;;19.30;16.48;;;1.20;99.90;;;;;;5025506;28;20423;-75
2023/01/19 08:30:11;;;;;;;20.07;16.20;;;1.30;99.90;;;;;;5023396;28;20498;-75
2023/01/19 08:32:38;;;;;;;19.48;16.23;;;1.30;99.90;;;;;;5023587;28;20451;-76
2023/01/19 08:35:07;;;;;;;17.60;15.70;;;1.30;99.90;;;;;;5028360;28;20419;-76
2023/01/19 08:37:34;;;;;;;17.98;16.02;;;1.30;99.90;;;;;;5027746;28;20441;-75
2023/01/19 08:40:01;;;;;;;17.65;15.68;;;1.40;99.90;;;;;;5028772;28;20427;-75
2023/01/19 08:42:28;;;;;;;17.13;15.07;;;1.40;99.90;;;;;;5027524;28;20606;-74
2023/01/19 08:44:55;;;;;;;18.95;15.50;;;1.40;99.90;;;;;;5032038;28;20446;-76
2023/01/19 08:47:22;;;;;;;18.30;15.37;;;1.40;99.90;;;;;;5030732;28;20440;-77
2023/01/19 08:49:48;;;;;;;16.65;14.85;;;1.40;99.90;;;;;;5042832;28;20414;-76
2023/01/19 08:52:16;;;;;;;16.57;14.87;;;1.50;99.90;;;;;;5029559;28;20443;-75
2023/01/19 08:54:43;;;;;;;18.05;14.77;;;1.50;99.90;;;;;;5029683;28;20916;-75
2023/01/19 08:57:10;;;;;;;16.48;14.65;;;1.50;99.90;;;;;;5026713;28;20438;-77
2023/01/19 08:59:37;;;;;;;18.73;15.82;;;1.60;99.90;;;;;;5028278;28;20431;-76
2023/01/19 09:02:04;;;;;;;19.50;16.52;;;1.60;99.90;;;;;;5029022;28;20439;-75
2023/01/19 09:04:33;;;;;;;17.33;15.20;;;1.60;99.90;;;;;;5029215;28;20439;-75
2023/01/19 09:07:00;;;;;;;17.65;14.73;;;1.70;99.90;;;;;;5030383;28;20514;-77
2023/01/19 09:09:28;;;;;;;17.08;14.18;;;1.70;99.90;;;;;;5028871;28;20427;-76
2023/01/19 09:11:55;;;;;;;16.10;14.43;;;1.80;99.90;;;;;;5029321;28;20436;-77
2023/01/19 09:14:22;;;;;;;16.90;14.48;;;1.80;99.90;;;;;;5027771;28;20426;-76
2023/01/19 09:16:48;;;;;;;18.33;15.40;;;1.80;99.90;;;;;;5026232;28;20908;-75
2023/01/19 09:19:15;;;;;;;17.52;15.50;;;1.80;99.90;;;;;;5031094;28;20431;-76
2023/01/19 09:21:42;;;;;;;18.60;15.47;;;1.90;99.90;;;;;;5030454;28;20961;-76
2023/01/19 09:24:09;;;;;;;19.85;15.82;;;1.90;99.90;;;;;;5031009;28;20582;-76
2023/01/19 09:26:39;;;;;;;17.52;15.63;;;2.00;99.90;;;;;;5030035;28;20435;-77
2023/01/19 09:29:06;;;;;;;18.27;16.10;;;2.00;99.90;;;;;;5029432;28;20457;-76
2023/01/19 09:31:32;;;;;;;19.25;15.00;;;2.00;99.90;;;;;;5025280;28;20431;-77
2023/01/19 09:34:00;;;;;;;18.13;15.00;;;2.10;99.90;;;;;;5029705;28;20423;-78
2023/01/19 09:36:27;;;;;;;18.02;16.10;;;2.20;99.90;;;;;;5035963;28;20435;-77
2023/01/19 09:39:00;;;;;;;19.45;16.23;;;2.20;99.90;;;;;;5041934;28;20430;-78
2023/01/19 09:41:27;;;;;;;18.10;15.90;;;2.30;99.90;;;;;;5044977;28;20457;-77
2023/01/19 09:43:59;;;;;;;17.35;15.45;;;2.30;99.90;;;;;;5038267;28;20430;-77
2023/01/19 09:46:33;;;;;;;19.27;16.40;;;2.30;99.90;;;;;;5029986;28;20434;-77
2023/01/19 09:49:05;;;;;;;20.52;16.65;;;2.40;99.90;;;;;;5031209;28;20437;-77
2023/01/19 09:51:36;;;;;;;20.17;17.03;;;2.40;99.90;;;;;;5026994;28;20481;-77
2023/01/19 09:54:08;;;;;;;19.63;16.33;;;2.40;99.90;;;;;;5027518;28;20959;-75
2023/01/19 09:56:35;;;;;;;18.83;16.40;;;2.40;99.90;;;;;;5028535;28;20430;-74
2023/01/19 09:59:20;;;;;;;19.60;16.95;;;2.40;99.90;;;;;;5030582;28;20439;-75
2023/01/19 10:01:58;;;;;;;19.93;17.23;;;2.40;99.90;;;;;;5032422;28;20490;-74
2023/01/19 10:04:36;;;;;;;20.20;17.23;;;2.40;99.90;;;;;;5029491;28;20431;-75
2023/01/19 10:07:12;;;;;;;22.30;17.70;;;2.40;99.90;;;;;;5037954;28;20425;-74
2023/01/19 10:09:56;;;;;;;21.73;17.60;;;2.30;99.90;;;;;;5039603;28;20464;-75
2023/01/19 10:12:33;;;;;;;22.35;18.50;;;2.20;99.90;;;;;;5043925;28;20891;-75
2023/01/19 10:15:13;;;;;;;22.88;19.67;;;2.00;99.90;;;;;;5044236;28;20540;-75
2023/01/19 10:17:57;;;;;;;25.40;19.67;;;2.00;99.90;;;;;;5043948;28;20497;-76
2023/01/19 10:20:32;;;;;;;23.67;19.80;;;2.00;99.90;;;;;;5042470;28;20426;-76
2023/01/19 10:23:01;;;;;;;24.35;19.95;;;2.00;99.90;;;;;;5044021;28;20415;-76
2023/01/19 10:25:29;;;;;;;24.00;19.20;;;2.00;99.90;;;;;;5047279;28;20449;-76
2023/01/19 10:27:58;;;;;;;22.83;19.08;;;1.90;99.90;;;;;;5038215;28;20427;-77
2023/01/19 10:30:32;;;;;;;25.58;19.77;;;1.70;99.90;;;;;;5042064;28;20426;-76
2023/01/19 10:32:59;;;;;;;30.45;20.88;;;1.60;99.90;;;;;;5042893;28;20427;-76
2023/01/19 10:35:26;;;;;;;29.33;21.70;;;1.50;99.90;;;;;;5042929;28;20434;-76
2023/01/19 10:37:55;;;;;;;28.20;21.95;;;1.60;99.90;;;;;;5046522;28;20434;-76
2023/01/19 10:40:30;;;;;;;31.67;22.03;;;1.70;99.90;;;;;;5041499;28;20474;-75
2023/01/19 10:43:34;;;;;;;29.38;21.77;;;1.80;99.90;;;;;;5045860;28;20498;-75
2023/01/19 10:46:05;;;;;;;30.38;20.77;;;1.90;99.90;;;;;;5039149;28;21075;-76
2023/01/19 10:48:38;;;;;;;28.75;21.33;;;2.00;99.90;;;;;;5041167;28;20442;-75
2023/01/19 10:51:06;;;;;;;27.35;21.08;;;2.10;99.90;;;;;;5042742;28;20778;-76
2023/01/19 10:53:32;;;;;;;29.65;21.40;;;2.20;99.90;;;;;;5041397;28;20450;-75
2023/01/19 10:56:16;;;;;;;25.77;20.17;;;2.30;99.90;;;;;;5039690;28;20441;-75
2023/01/19 10:58:44;;;;;;;25.70;19.73;;;2.40;99.90;;;;;;5034172;28;20862;-76
2023/01/19 11:01:20;;;;;;;24.60;18.90;;;2.40;99.90;;;;;;5043191;28;20426;-75
2023/01/19 11:03:48;;;;;;;25.10;19.17;;;2.50;99.90;;;;;;5041581;28;20522;-77
2023/01/19 11:06:35;;;;;;;25.02;19.55;;;2.60;99.90;;;;;;5031761;28;20987;-75
2023/01/19 11:09:17;;;;;;;25.42;19.95;;;2.60;99.90;;;;;;5021323;28;20430;-76
2023/01/19 11:11:47;;;;;;;24.45;18.88;;;2.60;99.90;;;;;;5023537;28;20423;-77
2023/01/19 11:14:19;;;;;;;25.17;19.38;;;2.60;99.90;;;;;;5025990;28;20423;-77
2023/01/19 11:16:51;;;;;;;25.10;19.13;;;2.70;99.90;;;;;;5025808;28;20431;-77
2023/01/19 11:19:21;;;;;;;23.58;19.80;;;2.80;99.90;;;;;;5029342;28;20439;-75
2023/01/19 11:21:48;;;;;;;23.00;18.83;;;2.90;99.90;;;;;;5030212;28;20439;-77
2023/01/19 11:24:15;;;;;;;23.77;18.60;;;3.00;99.90;;;;;;5033621;28;20443;-77
2023/01/19 11:26:45;;;;;;;21.58;17.15;;;3.00;99.90;;;;;;5030113;28;20530;-75
2023/01/19 11:29:18;;;;;;;20.70;17.35;;;3.20;99.90;;;;;;5023645;28;20438;-75
2023/01/19 11:31:47;;;;;;;21.73;17.38;;;3.30;99.90;;;;;;5028237;28;20422;-76
2023/01/19 11:34:27;;;;;;;21.23;18.20;;;3.40;99.90;;;;;;5029074;28;20967;-76
2023/01/19 11:36:59;;;;;;;22.65;17.38;;;3.50;99.90;;;;;;5028833;28;20443;-77
2023/01/19 11:39:27;;;;;;;19.80;15.13;;;3.60;99.90;;;;;;5029594;28;20796;-75
2023/01/19 11:41:56;;;;;;;20.08;16.20;;;3.70;99.90;;;;;;5026996;28;20538;-76
2023/01/19 11:44:27;;;;;;;18.40;16.50;;;3.70;99.90;;;;;;5027584;28;20441;-76
2023/01/19 11:46:58;;;;;;;19.17;15.00;;;3.80;99.90;;;;;;5027317;28;20813;-77
2023/01/19 11:49:31;;;;;;;16.97;14.23;;;3.80;99.90;;;;;;5023655;28;20884;-76
2023/01/19 11:52:02;;;;;;;18.73;15.18;;;4.10;99.90;;;;;;5031781;28;20762;-76
2023/01/19 11:54:34;;;;;;;17.80;14.50;;;4.60;99.90;;;;;;5033401;28;20449;-76
2023/01/19 11:57:13;;;;;;;19.23;13.68;;;5.20;99.90;;;;;;5032609;28;20433;-74
2023/01/19 11:59:40;;;;;;;16.55;13.57;;;5.70;99.90;;;;;;5025699;28;20526;-75
2023/01/19 12:02:20;;;;;;;14.87;12.83;;;5.90;98.80;;;;;;5033841;28;20479;-73
2023/01/19 12:04:49;;;;;;;14.55;12.20;;;5.90;98.20;;;;;;5029540;28;20427;-74
2023/01/19 12:07:21;;;;;;;15.20;13.60;;;5.90;98.10;;;;;;5029186;28;20529;-73
2023/01/19 12:09:52;;;;;;;16.58;12.75;;;6.10;98.20;;;;;;5034795;28;20433;-73
2023/01/19 12:12:28;;;;;;;13.63;11.95;;;6.40;96.30;;;;;;5022964;28;20433;-74
2023/01/19 12:15:00;;;;;;;16.00;11.90;;;6.50;96.90;;;;;;5018229;28;20441;-74
2023/01/19 12:17:31;;;;;;;13.95;11.15;;;6.70;94.30;;;;;;5027171;28;20435;-76
2023/01/19 12:20:05;;;;;;;12.25;10.45;;;6.80;94.80;;;;;;5026918;28;20438;-75
2023/01/19 12:22:37;;;;;;;13.37;10.93;;;6.80;93.80;;;;;;5026159;28;20833;-77
2023/01/19 12:25:11;;;;;;;14.60;11.00;;;7.10;93.60;;;;;;5032042;28;20464;-77
2023/01/19 12:27:40;;;;;;;13.10;11.70;;;7.40;90.90;;;;;;5028205;28;20906;-76
2023/01/19 12:30:18;;;;;;;14.63;11.52;;;7.20;91.10;;;;;;5027186;28;20438;-78
2023/01/19 12:32:46;;;;;;;14.55;12.20;;;7.40;91.50;;;;;;5026929;28;20435;-65
2023/01/19 12:35:51;;;;;;;14.80;10.88;;;7.60;93.60;;;;;;5035583;28;20438;-69
2023/01/19 12:38:44;;;;;;;12.70;11.20;;;7.50;91.40;;;;;;5027968;28;20619;-63
2023/01/19 12:41:22;;;;;;;12.73;10.80;;;8.10;85.80;;;;;;5025693;28;20441;-74
2023/01/19 12:44:27;;;;;;;14.52;11.93;;;7.90;84.90;;;;;;5029858;28;20436;-76
2023/01/19 12:47:02;;;;;;;13.40;11.57;;;7.30;89.50;;;;;;5028166;28;20509;-77
2023/01/19 12:49:34;;;;;;;15.45;12.40;;;7.90;89.90;;;;;;5028588;28;20542;-78
2023/01/19 12:52:33;;;;;;;13.93;11.75;;;8.10;85.50;;;;;;5024916;28;20525;-76
2023/01/19 12:55:06;;;;;;;16.27;11.15;;;8.40;82.50;;;;;;5022258;28;20435;-78
2023/01/19 12:57:37;;;;;;;14.57;10.93;;;7.70;84.70;;;;;;5027275;28;20431;-78
2023/01/19 13:00:07;;;;;;;14.10;12.38;;;7.40;86.00;;;;;;5028060;28;20445;-78
2023/01/19 13:02:52;;;;;;;15.63;12.05;;;7.10;90.00;;;;;;5027941;28;20427;-77
2023/01/19 13:05:47;;;;;;;15.52;11.27;;;6.70;91.70;;;;;;5022367;28;20443;-77
2023/01/19 13:08:19;;;;;;;14.95;11.40;;;6.70;91.20;;;;;;5028943;28;20510;-78